sensor_id;sensor_type;location;lat;lon;timestamp;P1;durP1;ratioP1;P2;durP2;ratioP2
73729;SDS011;62036;48.128;16.458;2024-03-02T00:02:24;53.45;;;26.30;;
73729;SDS011;62036;48.128;16.458;2024-03-02T00:04:50;50.13;;;23.95;;
73729;SDS011;62036;48.128;16.458;2024-03-02T00:07:16;43.53;;;22.30;;
73729;SDS011;62036;48.128;16.458;2024-03-02T00:09:43;45.08;;;24.55;;
73729;SDS011;62036;48.128;16.458;2024-03-02T00:12:10;46.42;;;23.45;;
73729;SDS011;62036;48.128;16.458;2024-03-02T00:14:37;44.75;;;24.58;;
73729;SDS011;62036;48.128;16.458;2024-03-02T00:17:03;45.83;;;23.38;;
73729;SDS011;62036;48.128;16.458;2024-03-02T00:19:29;41.28;;;23.40;;
73729;SDS011;62036;48.128;16.458;2024-03-02T00:21:56;38.25;;;20.00;;
73729;SDS011;62036;48.128;16.458;2024-03-02T00:24:31;36.55;;;20.88;;
73729;SDS011;62036;48.128;16.458;2024-03-02T00:26:58;33.80;;;19.05;;
73729;SDS011;62036;48.128;16.458;2024-03-02T00:29:24;33.33;;;18.00;;
73729;SDS011;62036;48.128;16.458;2024-03-02T00:31:50;31.05;;;17.23;;
73729;SDS011;62036;48.128;16.458;2024-03-02T00:34:17;35.08;;;18.48;;
73729;SDS011;62036;48.128;16.458;2024-03-02T00:36:43;38.85;;;19.75;;
73729;SDS011;62036;48.128;16.458;2024-03-02T00:39:10;40.95;;;20.13;;
73729;SDS011;62036;48.128;16.458;2024-03-02T00:41:38;47.55;;;22.92;;
73729;SDS011;62036;48.128;16.458;2024-03-02T00:44:07;41.78;;;21.77;;
73729;SDS011;62036;48.128;16.458;2024-03-02T00:46:36;39.58;;;21.30;;
73729;SDS011;62036;48.128;16.458;2024-03-02T00:49:10;44.00;;;22.70;;
73729;SDS011;62036;48.128;16.458;2024-03-02T00:51:37;41.22;;;20.60;;
73729;SDS011;62036;48.128;16.458;2024-03-02T00:54:05;36.72;;;19.73;;
73729;SDS011;62036;48.128;16.458;2024-03-02T00:56:32;39.65;;;20.65;;
73729;SDS011;62036;48.128;16.458;2024-03-02T00:58:59;37.25;;;19.67;;
73729;SDS011;62036;48.128;16.458;2024-03-02T01:01:26;41.88;;;20.10;;
73729;SDS011;62036;48.128;16.458;2024-03-02T01:03:52;45.38;;;22.42;;
73729;SDS011;62036;48.128;16.458;2024-03-02T01:06:18;42.33;;;20.38;;
73729;SDS011;62036;48.128;16.458;2024-03-02T01:08:45;43.53;;;21.17;;
73729;SDS011;62036;48.128;16.458;2024-03-02T01:11:12;46.28;;;21.48;;
73729;SDS011;62036;48.128;16.458;2024-03-02T01:13:38;46.67;;;23.42;;
73729;SDS011;62036;48.128;16.458;2024-03-02T01:16:04;47.70;;;23.23;;
73729;SDS011;62036;48.128;16.458;2024-03-02T01:18:30;44.58;;;21.70;;
73729;SDS011;62036;48.128;16.458;2024-03-02T01:20:56;40.97;;;19.40;;
73729;SDS011;62036;48.128;16.458;2024-03-02T01:23:23;39.70;;;20.88;;
73729;SDS011;62036;48.128;16.458;2024-03-02T01:25:52;37.35;;;19.65;;
73729;SDS011;62036;48.128;16.458;2024-03-02T01:28:19;41.30;;;20.73;;
73729;SDS011;62036;48.128;16.458;2024-03-02T01:30:45;38.10;;;21.55;;
73729;SDS011;62036;48.128;16.458;2024-03-02T01:33:12;43.40;;;23.35;;
73729;SDS011;62036;48.128;16.458;2024-03-02T01:35:38;42.83;;;22.55;;
73729;SDS011;62036;48.128;16.458;2024-03-02T01:38:04;38.33;;;20.52;;
73729;SDS011;62036;48.128;16.458;2024-03-02T01:40:32;32.38;;;17.95;;
73729;SDS011;62036;48.128;16.458;2024-03-02T01:42:58;33.83;;;17.70;;
73729;SDS011;62036;48.128;16.458;2024-03-02T01:45:24;38.85;;;17.35;;
73729;SDS011;62036;48.128;16.458;2024-03-02T01:47:50;29.30;;;17.08;;
73729;SDS011;62036;48.128;16.458;2024-03-02T01:50:24;33.97;;;18.48;;
73729;SDS011;62036;48.128;16.458;2024-03-02T01:52:50;29.27;;;17.45;;
73729;SDS011;62036;48.128;16.458;2024-03-02T01:55:17;27.75;;;15.50;;
73729;SDS011;62036;48.128;16.458;2024-03-02T01:57:43;23.33;;;14.77;;
73729;SDS011;62036;48.128;16.458;2024-03-02T02:00:10;27.25;;;16.00;;
73729;SDS011;62036;48.128;16.458;2024-03-02T02:02:36;22.98;;;15.65;;
73729;SDS011;62036;48.128;16.458;2024-03-02T02:05:02;24.73;;;15.07;;
73729;SDS011;62036;48.128;16.458;2024-03-02T02:07:29;26.27;;;14.25;;
73729;SDS011;62036;48.128;16.458;2024-03-02T02:09:56;28.08;;;15.38;;
73729;SDS011;62036;48.128;16.458;2024-03-02T02:12:22;38.55;;;16.48;;
73729;SDS011;62036;48.128;16.458;2024-03-02T02:14:48;39.15;;;14.23;;
73729;SDS011;62036;48.128;16.458;2024-03-02T02:17:15;26.35;;;16.02;;
73729;SDS011;62036;48.128;16.458;2024-03-02T02:19:42;31.00;;;16.45;;
73729;SDS011;62036;48.128;16.458;2024-03-02T02:22:08;27.08;;;15.27;;
73729;SDS011;62036;48.128;16.458;2024-03-02T02:24:34;31.20;;;16.83;;
73729;SDS011;62036;48.128;16.458;2024-03-02T02:27:00;25.30;;;15.07;;
73729;SDS011;62036;48.128;16.458;2024-03-02T02:29:27;27.10;;;15.93;;
73729;SDS011;62036;48.128;16.458;2024-03-02T02:31:53;26.88;;;15.75;;
73729;SDS011;62036;48.128;16.458;2024-03-02T02:34:19;28.30;;;15.38;;
73729;SDS011;62036;48.128;16.458;2024-03-02T02:36:45;25.40;;;16.10;;
73729;SDS011;62036;48.128;16.458;2024-03-02T02:39:12;26.60;;;15.13;;
73729;SDS011;62036;48.128;16.458;2024-03-02T02:41:39;27.92;;;16.00;;
73729;SDS011;62036;48.128;16.458;2024-03-02T02:44:05;27.65;;;14.88;;
73729;SDS011;62036;48.128;16.458;2024-03-02T02:46:31;30.42;;;15.82;;
73729;SDS011;62036;48.128;16.458;2024-03-02T02:48:57;30.95;;;16.35;;
73729;SDS011;62036;48.128;16.458;2024-03-02T02:51:23;29.33;;;15.73;;
73729;SDS011;62036;48.128;16.458;2024-03-02T02:53:50;33.13;;;17.55;;
73729;SDS011;62036;48.128;16.458;2024-03-02T02:56:16;33.83;;;16.05;;
73729;SDS011;62036;48.128;16.458;2024-03-02T02:58:42;33.95;;;16.30;;
73729;SDS011;62036;48.128;16.458;2024-03-02T03:01:08;36.83;;;17.67;;
73729;SDS011;62036;48.128;16.458;2024-03-02T03:03:35;41.35;;;16.63;;
73729;SDS011;62036;48.128;16.458;2024-03-02T03:06:01;34.17;;;18.50;;
73729;SDS011;62036;48.128;16.458;2024-03-02T03:08:27;35.47;;;16.95;;
73729;SDS011;62036;48.128;16.458;2024-03-02T03:10:53;32.47;;;16.67;;
73729;SDS011;62036;48.128;16.458;2024-03-02T03:13:19;32.15;;;17.95;;
73729;SDS011;62036;48.128;16.458;2024-03-02T03:15:46;34.15;;;16.77;;
73729;SDS011;62036;48.128;16.458;2024-03-02T03:18:12;37.83;;;18.05;;
73729;SDS011;62036;48.128;16.458;2024-03-02T03:20:38;40.08;;;17.77;;
73729;SDS011;62036;48.128;16.458;2024-03-02T03:23:04;42.85;;;17.75;;
73729;SDS011;62036;48.128;16.458;2024-03-02T03:25:30;31.50;;;16.65;;
73729;SDS011;62036;48.128;16.458;2024-03-02T03:27:56;34.17;;;16.70;;
73729;SDS011;62036;48.128;16.458;2024-03-02T03:30:22;36.78;;;17.30;;
73729;SDS011;62036;48.128;16.458;2024-03-02T03:32:48;35.75;;;17.25;;
73729;SDS011;62036;48.128;16.458;2024-03-02T03:35:14;34.70;;;18.23;;
73729;SDS011;62036;48.128;16.458;2024-03-02T03:37:41;33.38;;;16.67;;
73729;SDS011;62036;48.128;16.458;2024-03-02T03:40:07;45.63;;;18.00;;
73729;SDS011;62036;48.128;16.458;2024-03-02T03:42:36;48.25;;;19.23;;
73729;SDS011;62036;48.128;16.458;2024-03-02T03:45:03;33.08;;;18.48;;
73729;SDS011;62036;48.128;16.458;2024-03-02T03:47:30;46.65;;;18.23;;
73729;SDS011;62036;48.128;16.458;2024-03-02T03:49:56;46.08;;;18.40;;
73729;SDS011;62036;48.128;16.458;2024-03-02T03:52:23;39.38;;;19.08;;
73729;SDS011;62036;48.128;16.458;2024-03-02T03:54:49;36.17;;;18.70;;
73729;SDS011;62036;48.128;16.458;2024-03-02T03:57:15;35.10;;;17.27;;
73729;SDS011;62036;48.128;16.458;2024-03-02T03:59:41;42.42;;;18.60;;
73729;SDS011;62036;48.128;16.458;2024-03-02T04:02:07;42.33;;;20.33;;
73729;SDS011;62036;48.128;16.458;2024-03-02T04:04:34;42.67;;;17.63;;
73729;SDS011;62036;48.128;16.458;2024-03-02T04:07:00;43.33;;;17.73;;
73729;SDS011;62036;48.128;16.458;2024-03-02T04:09:26;39.63;;;17.50;;
73729;SDS011;62036;48.128;16.458;2024-03-02T04:11:52;39.97;;;18.30;;
73729;SDS011;62036;48.128;16.458;2024-03-02T04:14:19;33.33;;;15.38;;
73729;SDS011;62036;48.128;16.458;2024-03-02T04:16:45;29.27;;;14.13;;
73729;SDS011;62036;48.128;16.458;2024-03-02T04:19:11;39.67;;;16.50;;
73729;SDS011;62036;48.128;16.458;2024-03-02T04:21:37;38.58;;;14.88;;
73729;SDS011;62036;48.128;16.458;2024-03-02T04:24:03;31.38;;;14.52;;
73729;SDS011;62036;48.128;16.458;2024-03-02T04:26:29;29.45;;;14.05;;
73729;SDS011;62036;48.128;16.458;2024-03-02T04:28:55;36.75;;;15.85;;
73729;SDS011;62036;48.128;16.458;2024-03-02T04:31:21;32.15;;;15.90;;
73729;SDS011;62036;48.128;16.458;2024-03-02T04:33:47;32.33;;;14.10;;
73729;SDS011;62036;48.128;16.458;2024-03-02T04:36:13;30.38;;;16.92;;
73729;SDS011;62036;48.128;16.458;2024-03-02T04:38:39;38.17;;;14.65;;
73729;SDS011;62036;48.128;16.458;2024-03-02T04:41:06;31.52;;;15.00;;
73729;SDS011;62036;48.128;16.458;2024-03-02T04:43:32;37.42;;;14.38;;
73729;SDS011;62036;48.128;16.458;2024-03-02T04:45:58;33.75;;;16.77;;
73729;SDS011;62036;48.128;16.458;2024-03-02T04:48:25;40.33;;;16.83;;
73729;SDS011;62036;48.128;16.458;2024-03-02T04:50:51;35.05;;;16.13;;
73729;SDS011;62036;48.128;16.458;2024-03-02T04:53:17;34.40;;;18.02;;
73729;SDS011;62036;48.128;16.458;2024-03-02T04:55:43;34.78;;;17.20;;
73729;SDS011;62036;48.128;16.458;2024-03-02T04:58:09;34.20;;;16.02;;
73729;SDS011;62036;48.128;16.458;2024-03-02T05:00:35;31.27;;;16.60;;
73729;SDS011;62036;48.128;16.458;2024-03-02T05:03:02;31.42;;;15.00;;
73729;SDS011;62036;48.128;16.458;2024-03-02T05:05:28;33.30;;;14.95;;
73729;SDS011;62036;48.128;16.458;2024-03-02T05:07:54;34.15;;;16.45;;
73729;SDS011;62036;48.128;16.458;2024-03-02T05:10:20;26.58;;;13.80;;
73729;SDS011;62036;48.128;16.458;2024-03-02T05:12:46;30.40;;;15.02;;
73729;SDS011;62036;48.128;16.458;2024-03-02T05:15:22;33.15;;;16.30;;
73729;SDS011;62036;48.128;16.458;2024-03-02T05:17:48;39.58;;;16.08;;
73729;SDS011;62036;48.128;16.458;2024-03-02T05:20:14;35.92;;;14.93;;
73729;SDS011;62036;48.128;16.458;2024-03-02T05:22:40;30.98;;;16.15;;
73729;SDS011;62036;48.128;16.458;2024-03-02T05:25:06;41.92;;;16.33;;
73729;SDS011;62036;48.128;16.458;2024-03-02T05:27:34;38.28;;;14.98;;
73729;SDS011;62036;48.128;16.458;2024-03-02T05:30:00;39.20;;;15.63;;
73729;SDS011;62036;48.128;16.458;2024-03-02T05:32:27;39.88;;;15.73;;
73729;SDS011;62036;48.128;16.458;2024-03-02T05:34:53;42.60;;;16.42;;
73729;SDS011;62036;48.128;16.458;2024-03-02T05:37:20;51.85;;;17.13;;
73729;SDS011;62036;48.128;16.458;2024-03-02T05:39:46;39.47;;;17.02;;
73729;SDS011;62036;48.128;16.458;2024-03-02T05:42:12;51.55;;;17.55;;
73729;SDS011;62036;48.128;16.458;2024-03-02T05:44:38;41.00;;;18.08;;
73729;SDS011;62036;48.128;16.458;2024-03-02T05:47:04;43.35;;;17.50;;
73729;SDS011;62036;48.128;16.458;2024-03-02T05:49:33;45.22;;;16.30;;
73729;SDS011;62036;48.128;16.458;2024-03-02T05:51:59;45.00;;;18.70;;
73729;SDS011;62036;48.128;16.458;2024-03-02T05:54:25;44.97;;;20.02;;
73729;SDS011;62036;48.128;16.458;2024-03-02T05:56:51;46.00;;;18.83;;
73729;SDS011;62036;48.128;16.458;2024-03-02T05:59:17;39.72;;;17.45;;
73729;SDS011;62036;48.128;16.458;2024-03-02T06:01:44;40.15;;;18.80;;
73729;SDS011;62036;48.128;16.458;2024-03-02T06:04:11;37.28;;;17.60;;
73729;SDS011;62036;48.128;16.458;2024-03-02T06:06:39;47.13;;;19.02;;
73729;SDS011;62036;48.128;16.458;2024-03-02T06:09:05;40.00;;;18.42;;
73729;SDS011;62036;48.128;16.458;2024-03-02T06:11:37;44.03;;;19.75;;
73729;SDS011;62036;48.128;16.458;2024-03-02T06:14:04;50.28;;;20.92;;
73729;SDS011;62036;48.128;16.458;2024-03-02T06:16:31;48.92;;;21.85;;
73729;SDS011;62036;48.128;16.458;2024-03-02T06:18:57;54.15;;;22.70;;
73729;SDS011;62036;48.128;16.458;2024-03-02T06:21:23;55.25;;;21.85;;
73729;SDS011;62036;48.128;16.458;2024-03-02T06:23:49;56.50;;;22.75;;
73729;SDS011;62036;48.128;16.458;2024-03-02T06:26:15;47.58;;;20.10;;
73729;SDS011;62036;48.128;16.458;2024-03-02T06:28:41;44.95;;;18.77;;
73729;SDS011;62036;48.128;16.458;2024-03-02T06:31:11;49.22;;;21.10;;
73729;SDS011;62036;48.128;16.458;2024-03-02T06:33:40;56.00;;;21.67;;
73729;SDS011;62036;48.128;16.458;2024-03-02T06:36:06;55.03;;;22.33;;
73729;SDS011;62036;48.128;16.458;2024-03-02T06:38:34;54.17;;;21.88;;
73729;SDS011;62036;48.128;16.458;2024-03-02T06:41:00;58.25;;;21.65;;
73729;SDS011;62036;48.128;16.458;2024-03-02T06:43:26;55.10;;;22.15;;
73729;SDS011;62036;48.128;16.458;2024-03-02T06:45:52;46.45;;;19.20;;
73729;SDS011;62036;48.128;16.458;2024-03-02T06:48:18;44.88;;;20.83;;
73729;SDS011;62036;48.128;16.458;2024-03-02T06:50:47;50.28;;;20.38;;
73729;SDS011;62036;48.128;16.458;2024-03-02T06:53:13;55.80;;;22.20;;
73729;SDS011;62036;48.128;16.458;2024-03-02T06:55:43;54.83;;;21.35;;
73729;SDS011;62036;48.128;16.458;2024-03-02T06:58:10;52.08;;;23.40;;
73729;SDS011;62036;48.128;16.458;2024-03-02T07:00:36;51.63;;;24.10;;
73729;SDS011;62036;48.128;16.458;2024-03-02T07:03:05;52.55;;;21.23;;
73729;SDS011;62036;48.128;16.458;2024-03-02T07:05:31;54.58;;;21.00;;
73729;SDS011;62036;48.128;16.458;2024-03-02T07:07:57;50.90;;;20.75;;
73729;SDS011;62036;48.128;16.458;2024-03-02T07:10:23;65.15;;;21.63;;
73729;SDS011;62036;48.128;16.458;2024-03-02T07:12:49;49.83;;;21.48;;
73729;SDS011;62036;48.128;16.458;2024-03-02T07:15:15;50.60;;;21.10;;
73729;SDS011;62036;48.128;16.458;2024-03-02T07:17:53;58.22;;;22.98;;
73729;SDS011;62036;48.128;16.458;2024-03-02T07:20:19;66.18;;;22.70;;
73729;SDS011;62036;48.128;16.458;2024-03-02T07:22:45;57.85;;;24.02;;
73729;SDS011;62036;48.128;16.458;2024-03-02T07:25:11;75.97;;;21.27;;
73729;SDS011;62036;48.128;16.458;2024-03-02T07:27:38;54.63;;;20.98;;
73729;SDS011;62036;48.128;16.458;2024-03-02T07:30:04;54.50;;;21.00;;
73729;SDS011;62036;48.128;16.458;2024-03-02T07:32:30;58.10;;;18.80;;
73729;SDS011;62036;48.128;16.458;2024-03-02T07:34:56;48.60;;;18.25;;
73729;SDS011;62036;48.128;16.458;2024-03-02T07:37:23;45.03;;;18.60;;
73729;SDS011;62036;48.128;16.458;2024-03-02T07:39:49;48.92;;;20.05;;
73729;SDS011;62036;48.128;16.458;2024-03-02T07:42:15;58.88;;;17.75;;
73729;SDS011;62036;48.128;16.458;2024-03-02T07:44:41;52.25;;;18.30;;
73729;SDS011;62036;48.128;16.458;2024-03-02T07:47:07;54.75;;;17.95;;
73729;SDS011;62036;48.128;16.458;2024-03-02T07:49:33;40.67;;;18.27;;
73729;SDS011;62036;48.128;16.458;2024-03-02T07:52:00;38.10;;;18.25;;
73729;SDS011;62036;48.128;16.458;2024-03-02T07:54:26;38.28;;;16.05;;
73729;SDS011;62036;48.128;16.458;2024-03-02T07:56:52;32.80;;;17.15;;
73729;SDS011;62036;48.128;16.458;2024-03-02T07:59:18;51.13;;;20.17;;
73729;SDS011;62036;48.128;16.458;2024-03-02T08:01:47;68.68;;;25.45;;
73729;SDS011;62036;48.128;16.458;2024-03-02T08:04:15;30.83;;;15.93;;
73729;SDS011;62036;48.128;16.458;2024-03-02T08:06:41;35.17;;;15.77;;
73729;SDS011;62036;48.128;16.458;2024-03-02T08:09:07;30.42;;;14.80;;
73729;SDS011;62036;48.128;16.458;2024-03-02T08:11:36;27.77;;;14.60;;
73729;SDS011;62036;48.128;16.458;2024-03-02T08:14:02;26.63;;;13.45;;
73729;SDS011;62036;48.128;16.458;2024-03-02T08:16:28;27.63;;;15.02;;
73729;SDS011;62036;48.128;16.458;2024-03-02T08:18:55;27.17;;;15.07;;
73729;SDS011;62036;48.128;16.458;2024-03-02T08:21:23;30.15;;;15.88;;
73729;SDS011;62036;48.128;16.458;2024-03-02T08:23:49;28.35;;;14.77;;
73729;SDS011;62036;48.128;16.458;2024-03-02T08:26:15;28.77;;;14.68;;
73729;SDS011;62036;48.128;16.458;2024-03-02T08:28:41;29.10;;;15.80;;
73729;SDS011;62036;48.128;16.458;2024-03-02T08:31:08;31.17;;;15.30;;
73729;SDS011;62036;48.128;16.458;2024-03-02T08:33:34;31.05;;;15.95;;
73729;SDS011;62036;48.128;16.458;2024-03-02T08:36:00;26.05;;;13.88;;
73729;SDS011;62036;48.128;16.458;2024-03-02T08:38:27;28.63;;;14.65;;
73729;SDS011;62036;48.128;16.458;2024-03-02T08:40:54;28.35;;;14.25;;
73729;SDS011;62036;48.128;16.458;2024-03-02T08:43:20;26.55;;;13.93;;
73729;SDS011;62036;48.128;16.458;2024-03-02T08:45:47;30.83;;;16.50;;
73729;SDS011;62036;48.128;16.458;2024-03-02T08:48:13;28.83;;;15.32;;
73729;SDS011;62036;48.128;16.458;2024-03-02T08:50:39;26.48;;;15.30;;
73729;SDS011;62036;48.128;16.458;2024-03-02T08:53:05;25.58;;;14.82;;
73729;SDS011;62036;48.128;16.458;2024-03-02T08:55:32;29.90;;;15.05;;
73729;SDS011;62036;48.128;16.458;2024-03-02T08:57:58;27.15;;;15.80;;
73729;SDS011;62036;48.128;16.458;2024-03-02T09:00:24;28.95;;;15.90;;
73729;SDS011;62036;48.128;16.458;2024-03-02T09:02:50;32.72;;;16.30;;
73729;SDS011;62036;48.128;16.458;2024-03-02T09:05:16;38.38;;;18.27;;
73729;SDS011;62036;48.128;16.458;2024-03-02T09:07:42;32.22;;;15.43;;
73729;SDS011;62036;48.128;16.458;2024-03-02T09:10:09;30.27;;;16.48;;
73729;SDS011;62036;48.128;16.458;2024-03-02T09:12:35;35.67;;;18.40;;
73729;SDS011;62036;48.128;16.458;2024-03-02T09:15:01;32.13;;;15.95;;
73729;SDS011;62036;48.128;16.458;2024-03-02T09:17:28;33.25;;;17.55;;
73729;SDS011;62036;48.128;16.458;2024-03-02T09:19:54;33.05;;;16.60;;
73729;SDS011;62036;48.128;16.458;2024-03-02T09:22:21;37.53;;;18.25;;
73729;SDS011;62036;48.128;16.458;2024-03-02T09:24:48;31.45;;;17.02;;
73729;SDS011;62036;48.128;16.458;2024-03-02T09:27:14;31.65;;;17.35;;
73729;SDS011;62036;48.128;16.458;2024-03-02T09:29:40;37.22;;;18.38;;
73729;SDS011;62036;48.128;16.458;2024-03-02T09:32:07;34.55;;;16.20;;
73729;SDS011;62036;48.128;16.458;2024-03-02T09:34:33;34.83;;;17.60;;
73729;SDS011;62036;48.128;16.458;2024-03-02T09:36:59;34.13;;;18.33;;
73729;SDS011;62036;48.128;16.458;2024-03-02T09:39:25;33.60;;;16.75;;
73729;SDS011;62036;48.128;16.458;2024-03-02T09:41:51;31.27;;;17.63;;
73729;SDS011;62036;48.128;16.458;2024-03-02T09:44:17;35.15;;;18.38;;
73729;SDS011;62036;48.128;16.458;2024-03-02T09:46:44;35.70;;;18.55;;
73729;SDS011;62036;48.128;16.458;2024-03-02T09:49:14;34.42;;;18.40;;
73729;SDS011;62036;48.128;16.458;2024-03-02T09:51:40;37.35;;;18.70;;
73729;SDS011;62036;48.128;16.458;2024-03-02T09:54:10;35.47;;;18.83;;
73729;SDS011;62036;48.128;16.458;2024-03-02T09:56:36;36.42;;;19.88;;
73729;SDS011;62036;48.128;16.458;2024-03-02T09:59:02;33.10;;;18.30;;
73729;SDS011;62036;48.128;16.458;2024-03-02T10:01:28;39.83;;;19.27;;
73729;SDS011;62036;48.128;16.458;2024-03-02T10:03:54;36.42;;;19.05;;
73729;SDS011;62036;48.128;16.458;2024-03-02T10:06:24;34.67;;;18.90;;
73729;SDS011;62036;48.128;16.458;2024-03-02T10:08:51;41.25;;;20.55;;
73729;SDS011;62036;48.128;16.458;2024-03-02T10:14:08;40.47;;;20.33;;
73729;SDS011;62036;48.128;16.458;2024-03-02T10:16:36;39.25;;;18.65;;
73729;SDS011;62036;48.128;16.458;2024-03-02T10:19:21;40.80;;;19.92;;
73729;SDS011;62036;48.128;16.458;2024-03-02T10:21:51;34.65;;;19.80;;
73729;SDS011;62036;48.128;16.458;2024-03-02T10:24:18;40.92;;;19.95;;
73729;SDS011;62036;48.128;16.458;2024-03-02T10:26:44;70.10;;;40.42;;
73729;SDS011;62036;48.128;16.458;2024-03-02T10:29:10;71.13;;;39.05;;
73729;SDS011;62036;48.128;16.458;2024-03-02T10:31:37;71.15;;;38.50;;
73729;SDS011;62036;48.128;16.458;2024-03-02T10:34:03;74.28;;;40.75;;
73729;SDS011;62036;48.128;16.458;2024-03-02T10:36:29;68.47;;;36.95;;
73729;SDS011;62036;48.128;16.458;2024-03-02T10:38:58;72.35;;;37.40;;
73729;SDS011;62036;48.128;16.458;2024-03-02T10:41:26;63.28;;;37.53;;
73729;SDS011;62036;48.128;16.458;2024-03-02T10:43:53;47.88;;;25.98;;
73729;SDS011;62036;48.128;16.458;2024-03-02T10:46:24;52.17;;;27.90;;
73729;SDS011;62036;48.128;16.458;2024-03-02T10:48:52;48.55;;;24.23;;
73729;SDS011;62036;48.128;16.458;2024-03-02T10:51:18;52.95;;;23.90;;
73729;SDS011;62036;48.128;16.458;2024-03-02T10:53:44;49.65;;;24.70;;
73729;SDS011;62036;48.128;16.458;2024-03-02T10:56:10;49.55;;;26.40;;
73729;SDS011;62036;48.128;16.458;2024-03-02T10:58:40;54.67;;;29.52;;
73729;SDS011;62036;48.128;16.458;2024-03-02T11:01:06;53.20;;;28.17;;
73729;SDS011;62036;48.128;16.458;2024-03-02T11:03:36;51.15;;;24.52;;
73729;SDS011;62036;48.128;16.458;2024-03-02T11:06:07;46.45;;;23.15;;
73729;SDS011;62036;48.128;16.458;2024-03-02T11:08:34;48.38;;;23.75;;
73729;SDS011;62036;48.128;16.458;2024-03-02T11:11:11;44.58;;;21.77;;
73729;SDS011;62036;48.128;16.458;2024-03-02T11:13:38;49.85;;;23.45;;
73729;SDS011;62036;48.128;16.458;2024-03-02T11:16:21;53.28;;;24.27;;
73729;SDS011;62036;48.128;16.458;2024-03-02T11:18:49;52.38;;;23.75;;
73729;SDS011;62036;48.128;16.458;2024-03-02T11:21:16;47.42;;;23.60;;
73729;SDS011;62036;48.128;16.458;2024-03-02T11:23:42;49.55;;;24.88;;
73729;SDS011;62036;48.128;16.458;2024-03-02T11:26:19;54.72;;;26.75;;
73729;SDS011;62036;48.128;16.458;2024-03-02T11:28:45;53.05;;;26.08;;
73729;SDS011;62036;48.128;16.458;2024-03-02T11:31:11;48.13;;;24.75;;
73729;SDS011;62036;48.128;16.458;2024-03-02T11:33:37;53.60;;;27.08;;
73729;SDS011;62036;48.128;16.458;2024-03-02T11:36:03;46.13;;;22.35;;
73729;SDS011;62036;48.128;16.458;2024-03-02T11:38:32;48.67;;;24.83;;
73729;SDS011;62036;48.128;16.458;2024-03-02T11:41:02;48.80;;;26.23;;
73729;SDS011;62036;48.128;16.458;2024-03-02T11:43:29;47.83;;;24.05;;
73729;SDS011;62036;48.128;16.458;2024-03-02T11:45:58;54.53;;;24.17;;
73729;SDS011;62036;48.128;16.458;2024-03-02T11:48:25;48.60;;;25.10;;
73729;SDS011;62036;48.128;16.458;2024-03-02T11:50:51;50.80;;;24.30;;
73729;SDS011;62036;48.128;16.458;2024-03-02T11:53:19;53.85;;;24.88;;
73729;SDS011;62036;48.128;16.458;2024-03-02T11:55:45;54.88;;;25.00;;
73729;SDS011;62036;48.128;16.458;2024-03-02T11:58:12;50.85;;;24.80;;
73729;SDS011;62036;48.128;16.458;2024-03-02T12:00:38;55.38;;;25.90;;
73729;SDS011;62036;48.128;16.458;2024-03-02T12:03:06;49.80;;;24.98;;
73729;SDS011;62036;48.128;16.458;2024-03-02T12:05:32;54.97;;;26.77;;
73729;SDS011;62036;48.128;16.458;2024-03-02T12:08:02;48.15;;;26.77;;
73729;SDS011;62036;48.128;16.458;2024-03-02T12:10:28;43.53;;;23.20;;
73729;SDS011;62036;48.128;16.458;2024-03-02T12:12:55;46.10;;;24.13;;
73729;SDS011;62036;48.128;16.458;2024-03-02T12:15:29;38.28;;;19.83;;
73729;SDS011;62036;48.128;16.458;2024-03-02T12:17:56;46.80;;;25.35;;
73729;SDS011;62036;48.128;16.458;2024-03-02T12:20:25;45.53;;;25.15;;
73729;SDS011;62036;48.128;16.458;2024-03-02T12:22:52;48.78;;;23.67;;
73729;SDS011;62036;48.128;16.458;2024-03-02T12:25:22;49.95;;;27.08;;
73729;SDS011;62036;48.128;16.458;2024-03-02T12:27:49;46.50;;;24.88;;
73729;SDS011;62036;48.128;16.458;2024-03-02T12:30:26;48.10;;;24.20;;
73729;SDS011;62036;48.128;16.458;2024-03-02T12:32:52;42.97;;;19.52;;
73729;SDS011;62036;48.128;16.458;2024-03-02T12:35:18;44.60;;;23.60;;
73729;SDS011;62036;48.128;16.458;2024-03-02T12:37:46;45.75;;;24.23;;
73729;SDS011;62036;48.128;16.458;2024-03-02T12:40:13;43.35;;;22.95;;
73729;SDS011;62036;48.128;16.458;2024-03-02T12:42:40;43.05;;;22.58;;
73729;SDS011;62036;48.128;16.458;2024-03-02T12:45:07;39.08;;;21.20;;
73729;SDS011;62036;48.128;16.458;2024-03-02T12:47:34;40.40;;;21.27;;
73729;SDS011;62036;48.128;16.458;2024-03-02T12:50:00;39.45;;;21.33;;
73729;SDS011;62036;48.128;16.458;2024-03-02T12:52:26;39.38;;;20.77;;
73729;SDS011;62036;48.128;16.458;2024-03-02T12:54:52;41.13;;;21.13;;
73729;SDS011;62036;48.128;16.458;2024-03-02T12:57:24;36.40;;;20.48;;
73729;SDS011;62036;48.128;16.458;2024-03-02T12:59:52;39.38;;;19.52;;
73729;SDS011;62036;48.128;16.458;2024-03-02T13:02:18;36.47;;;19.60;;
73729;SDS011;62036;48.128;16.458;2024-03-02T13:04:44;39.45;;;21.02;;
73729;SDS011;62036;48.128;16.458;2024-03-02T13:07:13;38.00;;;20.48;;
73729;SDS011;62036;48.128;16.458;2024-03-02T13:09:39;37.58;;;20.05;;
73729;SDS011;62036;48.128;16.458;2024-03-02T13:12:05;34.95;;;19.42;;
73729;SDS011;62036;48.128;16.458;2024-03-02T13:14:35;36.70;;;20.95;;
73729;SDS011;62036;48.128;16.458;2024-03-02T13:17:01;36.75;;;18.60;;
73729;SDS011;62036;48.128;16.458;2024-03-02T13:19:30;38.38;;;20.02;;
73729;SDS011;62036;48.128;16.458;2024-03-02T13:21:57;35.65;;;20.65;;
73729;SDS011;62036;48.128;16.458;2024-03-02T13:24:23;38.58;;;18.83;;
73729;SDS011;62036;48.128;16.458;2024-03-02T13:26:54;36.72;;;17.80;;
73729;SDS011;62036;48.128;16.458;2024-03-02T13:29:22;32.85;;;18.48;;
73729;SDS011;62036;48.128;16.458;2024-03-02T13:31:49;33.65;;;18.02;;
73729;SDS011;62036;48.128;16.458;2024-03-02T13:34:15;42.10;;;20.10;;
73729;SDS011;62036;48.128;16.458;2024-03-02T13:36:41;34.92;;;18.08;;
73729;SDS011;62036;48.128;16.458;2024-03-02T13:39:07;33.40;;;18.73;;
73729;SDS011;62036;48.128;16.458;2024-03-02T13:41:40;34.47;;;19.02;;
73729;SDS011;62036;48.128;16.458;2024-03-02T13:44:06;34.53;;;19.40;;
73729;SDS011;62036;48.128;16.458;2024-03-02T13:46:32;35.70;;;18.60;;
73729;SDS011;62036;48.128;16.458;2024-03-02T13:48:58;36.63;;;19.52;;
73729;SDS011;62036;48.128;16.458;2024-03-02T13:51:25;36.25;;;19.58;;
73729;SDS011;62036;48.128;16.458;2024-03-02T13:53:51;35.78;;;18.90;;
73729;SDS011;62036;48.128;16.458;2024-03-02T13:56:17;44.92;;;25.60;;
73729;SDS011;62036;48.128;16.458;2024-03-02T13:58:43;37.60;;;19.92;;
73729;SDS011;62036;48.128;16.458;2024-03-02T14:01:11;34.55;;;20.90;;
73729;SDS011;62036;48.128;16.458;2024-03-02T14:03:37;34.00;;;19.23;;
73729;SDS011;62036;48.128;16.458;2024-03-02T14:06:03;34.97;;;19.65;;
73729;SDS011;62036;48.128;16.458;2024-03-02T14:08:29;39.05;;;21.40;;
73729;SDS011;62036;48.128;16.458;2024-03-02T14:10:55;36.58;;;19.88;;